Terminal Aerodrome Forecast
Issued by NWS Green Bay, WI

Home | Current Version | Previous Version | Text Only | Print | Product List | Glossary On
Versions: 1 2 3 4 5 6 7 8 9 10 11 12 13 14 15 16 17 18 19 20 21 22 23 24 25
000
FTUS43 KGRB 010500
TAFGRB
TAF
KGRB 010520Z 0106/0206 20009KT P6SM BKN080
     FM011000 21005KT P6SM -SN BKN030 OVC050
     FM011500 23008KT P6SM SCT030 BKN120
     FM020300 27010KT P6SM SCT030=

USA.gov is the U.S. government's official web portal to all federal, state and local government web resources and services.